Aviation Digital Data Service (ADDS)

Output produced by METARs form (1359 UTC 22 April 2019)
found at http://www.aviationweather.gov/metar/data/
 
METAR text: VVNB 221330Z 12009KT 9999 BKN018 29/24 Q1005 NOSIG
Conditions at: VVNB (HANOI/NOIBAI INT, VN) observed 1330 UTC 22 April 2019
Temperature: 29.0°C (84°F)
Dewpoint: 24.0°C (75°F) [RH = 74%]
Pressure (altimeter): 29.68 inches Hg (1005.0 mb)
Winds: from the ESE (120 degrees) at 10 MPH (9 knots; 4.6 m/s)
Visibility: 6 or more miles (10+ km)
Ceiling: 1800 feet AGL
Clouds: broken clouds at 1800 feet AGL
Weather: no significant weather observed at this time

METAR text: VVNB 221300Z 13010KT CAVOK 29/23 Q1005 NOSIG
Conditions at: VVNB (HANOI/NOIBAI INT, VN) observed 1300 UTC 22 April 2019
Temperature: 29.0°C (84°F)
Dewpoint: 23.0°C (73°F) [RH = 70%]
Pressure (altimeter): 29.68 inches Hg (1005.0 mb)
Winds: from the SE (130 degrees) at 12 MPH (10 knots; 5.1 m/s)
Visibility: 6 or more miles (10+ km)
Ceiling: ceiling and visibility are OK
Clouds: unknown
Weather: no significant weather observed at this time

METAR text: VVNB 221230Z 13011KT CAVOK 30/23 Q1004 NOSIG
Conditions at: VVNB (HANOI/NOIBAI INT, VN) observed 1230 UTC 22 April 2019
Temperature: 30.0°C (86°F)
Dewpoint: 23.0°C (73°F) [RH = 66%]
Pressure (altimeter): 29.65 inches Hg (1004.0 mb)
Winds: from the SE (130 degrees) at 13 MPH (11 knots; 5.7 m/s)
Visibility: 6 or more miles (10+ km)
Ceiling: ceiling and visibility are OK
Clouds: unknown
Weather: no significant weather observed at this time

METAR text: VVNB 221200Z 11009KT CAVOK 29/23 Q1003 NOSIG
Conditions at: VVNB (HANOI/NOIBAI INT, VN) observed 1200 UTC 22 April 2019
Temperature: 29.0°C (84°F)
Dewpoint: 23.0°C (73°F) [RH = 70%]
Pressure (altimeter): 29.62 inches Hg (1003.0 mb)
Winds: from the ESE (110 degrees) at 10 MPH (9 knots; 4.6 m/s)
Visibility: 6 or more miles (10+ km)
Ceiling: ceiling and visibility are OK
Clouds: unknown
Weather: no significant weather observed at this time

METAR text: VVNB 221130Z 11010KT CAVOK 30/22 Q1003 NOSIG
Conditions at: VVNB (HANOI/NOIBAI INT, VN) observed 1130 UTC 22 April 2019
Temperature: 30.0°C (86°F)
Dewpoint: 22.0°C (72°F) [RH = 62%]
Pressure (altimeter): 29.62 inches Hg (1003.0 mb)
Winds: from the ESE (110 degrees) at 12 MPH (10 knots; 5.1 m/s)
Visibility: 6 or more miles (10+ km)
Ceiling: ceiling and visibility are OK
Clouds: unknown
Weather: no significant weather observed at this time

METAR text: VVNB 221100Z 12012KT CAVOK 31/22 Q1003 NOSIG
Conditions at: VVNB (HANOI/NOIBAI INT, VN) observed 1100 UTC 22 April 2019
Temperature: 31.0°C (88°F)
Dewpoint: 22.0°C (72°F) [RH = 59%]
Pressure (altimeter): 29.62 inches Hg (1003.0 mb)
Winds: from the ESE (120 degrees) at 14 MPH (12 knots; 6.2 m/s)
Visibility: 6 or more miles (10+ km)
Ceiling: ceiling and visibility are OK
Clouds: unknown
Weather: no significant weather observed at this time

METAR text: VVNB 221030Z 11012KT CAVOK 31/23 Q1003 NOSIG
Conditions at: VVNB (HANOI/NOIBAI INT, VN) observed 1030 UTC 22 April 2019
Temperature: 31.0°C (88°F)
Dewpoint: 23.0°C (73°F) [RH = 63%]
Pressure (altimeter): 29.62 inches Hg (1003.0 mb)
Winds: from the ESE (110 degrees) at 14 MPH (12 knots; 6.2 m/s)
Visibility: 6 or more miles (10+ km)
Ceiling: ceiling and visibility are OK
Clouds: unknown
Weather: no significant weather observed at this time

METAR text: VVNB 221000Z 13013KT CAVOK 32/22 Q1002 NOSIG
Conditions at: VVNB (HANOI/NOIBAI INT, VN) observed 1000 UTC 22 April 2019
Temperature: 32.0°C (90°F)
Dewpoint: 22.0°C (72°F) [RH = 56%]
Pressure (altimeter): 29.59 inches Hg (1002.0 mb)
Winds: from the SE (130 degrees) at 15 MPH (13 knots; 6.7 m/s)
Visibility: 6 or more miles (10+ km)
Ceiling: ceiling and visibility are OK
Clouds: unknown
Weather: no significant weather observed at this time

METAR text: VVNB 220930Z 11012KT CAVOK 33/24 Q1002 NOSIG
Conditions at: VVNB (HANOI/NOIBAI INT, VN) observed 0930 UTC 22 April 2019
Temperature: 33.0°C (91°F)
Dewpoint: 24.0°C (75°F) [RH = 59%]
Pressure (altimeter): 29.59 inches Hg (1002.0 mb)
Winds: from the ESE (110 degrees) at 14 MPH (12 knots; 6.2 m/s)
Visibility: 6 or more miles (10+ km)
Ceiling: ceiling and visibility are OK
Clouds: unknown
Weather: no significant weather observed at this time

METAR text: VVNB 220900Z 10014KT CAVOK 33/24 Q1003 NOSIG
Conditions at: VVNB (HANOI/NOIBAI INT, VN) observed 0900 UTC 22 April 2019
Temperature: 33.0°C (91°F)
Dewpoint: 24.0°C (75°F) [RH = 59%]
Pressure (altimeter): 29.62 inches Hg (1003.0 mb)
Winds: from the E (100 degrees) at 16 MPH (14 knots; 7.2 m/s)
Visibility: 6 or more miles (10+ km)
Ceiling: ceiling and visibility are OK
Clouds: unknown
Weather: no significant weather observed at this time

METAR text: VVNB 220830Z 12014KT CAVOK 33/24 Q1003 NOSIG
Conditions at: VVNB (HANOI/NOIBAI INT, VN) observed 0830 UTC 22 April 2019
Temperature: 33.0°C (91°F)
Dewpoint: 24.0°C (75°F) [RH = 59%]
Pressure (altimeter): 29.62 inches Hg (1003.0 mb)
Winds: from the ESE (120 degrees) at 16 MPH (14 knots; 7.2 m/s)
Visibility: 6 or more miles (10+ km)
Ceiling: ceiling and visibility are OK
Clouds: unknown
Weather: no significant weather observed at this time

METAR text: VVNB 220800Z 11013KT CAVOK 34/23 Q1003 NOSIG
Conditions at: VVNB (HANOI/NOIBAI INT, VN) observed 0800 UTC 22 April 2019
Temperature: 34.0°C (93°F)
Dewpoint: 23.0°C (73°F) [RH = 53%]
Pressure (altimeter): 29.62 inches Hg (1003.0 mb)
Winds: from the ESE (110 degrees) at 15 MPH (13 knots; 6.7 m/s)
Visibility: 6 or more miles (10+ km)
Ceiling: ceiling and visibility are OK
Clouds: unknown
Weather: no significant weather observed at this time

METAR text: VVNB 220730Z 11011KT CAVOK 34/24 Q1003 NOSIG
Conditions at: VVNB (HANOI/NOIBAI INT, VN) observed 0730 UTC 22 April 2019
Temperature: 34.0°C (93°F)
Dewpoint: 24.0°C (75°F) [RH = 56%]
Pressure (altimeter): 29.62 inches Hg (1003.0 mb)
Winds: from the ESE (110 degrees) at 13 MPH (11 knots; 5.7 m/s)
Visibility: 6 or more miles (10+ km)
Ceiling: ceiling and visibility are OK
Clouds: unknown
Weather: no significant weather observed at this time

METAR text: VVNB 220700Z 11009KT CAVOK 35/24 Q1003 NOSIG
Conditions at: VVNB (HANOI/NOIBAI INT, VN) observed 0700 UTC 22 April 2019
Temperature: 35.0°C (95°F)
Dewpoint: 24.0°C (75°F) [RH = 53%]
Pressure (altimeter): 29.62 inches Hg (1003.0 mb)
Winds: from the ESE (110 degrees) at 10 MPH (9 knots; 4.6 m/s)
Visibility: 6 or more miles (10+ km)
Ceiling: ceiling and visibility are OK
Clouds: unknown
Weather: no significant weather observed at this time

METAR text: VVNB 220630Z 09007KT 050V130 CAVOK 35/24 Q1004 NOSIG
Conditions at: VVNB (HANOI/NOIBAI INT, VN) observed 0630 UTC 22 April 2019
Temperature: 35.0°C (95°F)
Dewpoint: 24.0°C (75°F) [RH = 53%]
Pressure (altimeter): 29.65 inches Hg (1004.0 mb)
Winds: from the E (90 degrees) at 8 MPH (7 knots; 3.6 m/s)
Visibility: 6 or more miles (10+ km)
Ceiling: ceiling and visibility are OK
Clouds: unknown
Weather: no significant weather observed at this time

METAR text: VVNB 220600Z 11008KT 070V140 CAVOK 35/24 Q1004 NOSIG
Conditions at: VVNB (HANOI/NOIBAI INT, VN) observed 0600 UTC 22 April 2019
Temperature: 35.0°C (95°F)
Dewpoint: 24.0°C (75°F) [RH = 53%]
Pressure (altimeter): 29.65 inches Hg (1004.0 mb)
Winds: from the ESE (110 degrees) at 9 MPH (8 knots; 4.1 m/s)
Visibility: 6 or more miles (10+ km)
Ceiling: ceiling and visibility are OK
Clouds: unknown
Weather: no significant weather observed at this time

METAR text: VVNB 220530Z 14006KT 100V180 CAVOK 34/24 Q1005 NOSIG
Conditions at: VVNB (HANOI/NOIBAI INT, VN) observed 0530 UTC 22 April 2019
Temperature: 34.0°C (93°F)
Dewpoint: 24.0°C (75°F) [RH = 56%]
Pressure (altimeter): 29.68 inches Hg (1005.0 mb)
Winds: from the SE (140 degrees) at 7 MPH (6 knots; 3.1 m/s)
Visibility: 6 or more miles (10+ km)
Ceiling: ceiling and visibility are OK
Clouds: unknown
Weather: no significant weather observed at this time

METAR text: VVNB 220500Z 12005KT 060V170 CAVOK 34/23 Q1005 NOSIG
Conditions at: VVNB (HANOI/NOIBAI INT, VN) observed 0500 UTC 22 April 2019
Temperature: 34.0°C (93°F)
Dewpoint: 23.0°C (73°F) [RH = 53%]
Pressure (altimeter): 29.68 inches Hg (1005.0 mb)
Winds: from the ESE (120 degrees) at 6 MPH (5 knots; 2.6 m/s)
Visibility: 6 or more miles (10+ km)
Ceiling: ceiling and visibility are OK
Clouds: unknown
Weather: no significant weather observed at this time

METAR text: VVNB 220430Z 11004KT 070V160 CAVOK 33/24 Q1006 NOSIG
Conditions at: VVNB (HANOI/NOIBAI INT, VN) observed 0430 UTC 22 April 2019
Temperature: 33.0°C (91°F)
Dewpoint: 24.0°C (75°F) [RH = 59%]
Pressure (altimeter): 29.70 inches Hg (1006.0 mb)
Winds: from the ESE (110 degrees) at 5 MPH (4 knots; 2.1 m/s)
Visibility: 6 or more miles (10+ km)
Ceiling: ceiling and visibility are OK
Clouds: unknown
Weather: no significant weather observed at this time

METAR text: VVNB 220400Z 08005KT 030V140 CAVOK 32/24 Q1006 NOSIG
Conditions at: VVNB (HANOI/NOIBAI INT, VN) observed 0400 UTC 22 April 2019
Temperature: 32.0°C (90°F)
Dewpoint: 24.0°C (75°F) [RH = 63%]
Pressure (altimeter): 29.70 inches Hg (1006.0 mb)
Winds: from the E (80 degrees) at 6 MPH (5 knots; 2.6 m/s)
Visibility: 6 or more miles (10+ km)
Ceiling: ceiling and visibility are OK
Clouds: unknown
Weather: no significant weather observed at this time

METAR text: VVNB 220330Z 08006KT 050V130 CAVOK 32/23 Q1006 NOSIG
Conditions at: VVNB (HANOI/NOIBAI INT, VN) observed 0330 UTC 22 April 2019
Temperature: 32.0°C (90°F)
Dewpoint: 23.0°C (73°F) [RH = 59%]
Pressure (altimeter): 29.70 inches Hg (1006.0 mb)
Winds: from the E (80 degrees) at 7 MPH (6 knots; 3.1 m/s)
Visibility: 6 or more miles (10+ km)
Ceiling: ceiling and visibility are OK
Clouds: unknown
Weather: no significant weather observed at this time

METAR text: VVNB 220230Z 07006KT CAVOK 30/22 Q1006 NOSIG
Conditions at: VVNB (HANOI/NOIBAI INT, VN) observed 0230 UTC 22 April 2019
Temperature: 30.0°C (86°F)
Dewpoint: 22.0°C (72°F) [RH = 62%]
Pressure (altimeter): 29.70 inches Hg (1006.0 mb)
Winds: from the ENE (70 degrees) at 7 MPH (6 knots; 3.1 m/s)
Visibility: 6 or more miles (10+ km)
Ceiling: ceiling and visibility are OK
Clouds: unknown
Weather: no significant weather observed at this time

METAR text: VVNB 220200Z 07005KT CAVOK 29/22 Q1006 NOSIG
Conditions at: VVNB (HANOI/NOIBAI INT, VN) observed 0200 UTC 22 April 2019
Temperature: 29.0°C (84°F)
Dewpoint: 22.0°C (72°F) [RH = 66%]
Pressure (altimeter): 29.70 inches Hg (1006.0 mb)
Winds: from the ENE (70 degrees) at 6 MPH (5 knots; 2.6 m/s)
Visibility: 6 or more miles (10+ km)
Ceiling: ceiling and visibility are OK
Clouds: unknown
Weather: no significant weather observed at this time

METAR text: VVNB 220130Z 06005KT 020V100 7000 NSC 29/23 Q1006 NOSIG
Conditions at: VVNB (HANOI/NOIBAI INT, VN) observed 0130 UTC 22 April 2019
Temperature: 29.0°C (84°F)
Dewpoint: 23.0°C (73°F) [RH = 70%]
Pressure (altimeter): 29.70 inches Hg (1006.0 mb)
Winds: from the ENE (60 degrees) at 6 MPH (5 knots; 2.6 m/s)
Visibility: 4 miles ( 7 km)
Ceiling: at least 12,000 feet AGL
Clouds: sky clear below 12,000 feet AGL
Weather: no significant weather observed at this time

METAR text: VVNB 220100Z 08007KT 6000 NSC 27/24 Q1006 NOSIG
Conditions at: VVNB (HANOI/NOIBAI INT, VN) observed 0100 UTC 22 April 2019
Temperature: 27.0°C (81°F)
Dewpoint: 24.0°C (75°F) [RH = 84%]
Pressure (altimeter): 29.70 inches Hg (1006.0 mb)
Winds: from the E (80 degrees) at 8 MPH (7 knots; 3.6 m/s)
Visibility: 4 miles ( 6 km)
Ceiling: at least 12,000 feet AGL
Clouds: sky clear below 12,000 feet AGL
Weather: no significant weather observed at this time

METAR text: VVNB 220030Z 07005KT 6000 NSC 27/23 Q1006 NOSIG
Conditions at: VVNB (HANOI/NOIBAI INT, VN) observed 0030 UTC 22 April 2019
Temperature: 27.0°C (81°F)
Dewpoint: 23.0°C (73°F) [RH = 79%]
Pressure (altimeter): 29.70 inches Hg (1006.0 mb)
Winds: from the ENE (70 degrees) at 6 MPH (5 knots; 2.6 m/s)
Visibility: 4 miles ( 6 km)
Ceiling: at least 12,000 feet AGL
Clouds: sky clear below 12,000 feet AGL
Weather: no significant weather observed at this time

METAR text: VVNB 220000Z 08006KT 050V110 7000 NSC 26/23 Q1005 NOSIG
Conditions at: VVNB (HANOI/NOIBAI INT, VN) observed 0000 UTC 22 April 2019
Temperature: 26.0°C (79°F)
Dewpoint: 23.0°C (73°F) [RH = 84%]
Pressure (altimeter): 29.68 inches Hg (1005.0 mb)
Winds: from the E (80 degrees) at 7 MPH (6 knots; 3.1 m/s)
Visibility: 4 miles ( 7 km)
Ceiling: at least 12,000 feet AGL
Clouds: sky clear below 12,000 feet AGL
Weather: no significant weather observed at this time

METAR text: VVNB 212330Z 09005KT 7000 NSC 26/23 Q1004 NOSIG
Conditions at: VVNB (HANOI/NOIBAI INT, VN) observed 2330 UTC 21 April 2019
Temperature: 26.0°C (79°F)
Dewpoint: 23.0°C (73°F) [RH = 84%]
Pressure (altimeter): 29.65 inches Hg (1004.0 mb)
Winds: from the E (90 degrees) at 6 MPH (5 knots; 2.6 m/s)
Visibility: 4 miles ( 7 km)
Ceiling: at least 12,000 feet AGL
Clouds: sky clear below 12,000 feet AGL
Weather: no significant weather observed at this time

METAR text: VVNB 212300Z 06005KT 7000 NSC 26/23 Q1004 NOSIG
Conditions at: VVNB (HANOI/NOIBAI INT, VN) observed 2300 UTC 21 April 2019
Temperature: 26.0°C (79°F)
Dewpoint: 23.0°C (73°F) [RH = 84%]
Pressure (altimeter): 29.65 inches Hg (1004.0 mb)
Winds: from the ENE (60 degrees) at 6 MPH (5 knots; 2.6 m/s)
Visibility: 4 miles ( 7 km)
Ceiling: at least 12,000 feet AGL
Clouds: sky clear below 12,000 feet AGL
Weather: no significant weather observed at this time

METAR text: VVNB 212230Z 09003KT 040V120 9000 NSC 25/23 Q1004 NOSIG
Conditions at: VVNB (HANOI/NOIBAI INT, VN) observed 2230 UTC 21 April 2019
Temperature: 25.0°C (77°F)
Dewpoint: 23.0°C (73°F) [RH = 89%]
Pressure (altimeter): 29.65 inches Hg (1004.0 mb)
Winds: from the E (90 degrees) at 3 MPH (3 knots; 1.5 m/s)
Visibility: 6 miles ( 9 km)
Ceiling: at least 12,000 feet AGL
Clouds: sky clear below 12,000 feet AGL
Weather: no significant weather observed at this time

METAR text: VVNB 212200Z 10005KT 070V130 9000 NSC 25/22 Q1004 NOSIG
Conditions at: VVNB (HANOI/NOIBAI INT, VN) observed 2200 UTC 21 April 2019
Temperature: 25.0°C (77°F)
Dewpoint: 22.0°C (72°F) [RH = 83%]
Pressure (altimeter): 29.65 inches Hg (1004.0 mb)
Winds: from the E (100 degrees) at 6 MPH (5 knots; 2.6 m/s)
Visibility: 6 miles ( 9 km)
Ceiling: at least 12,000 feet AGL
Clouds: sky clear below 12,000 feet AGL
Weather: no significant weather observed at this time

METAR text: VVNB 212130Z 09007KT 9000 NSC 25/23 Q1003 NOSIG
Conditions at: VVNB (HANOI/NOIBAI INT, VN) observed 2130 UTC 21 April 2019
Temperature: 25.0°C (77°F)
Dewpoint: 23.0°C (73°F) [RH = 89%]
Pressure (altimeter): 29.62 inches Hg (1003.0 mb)
Winds: from the E (90 degrees) at 8 MPH (7 knots; 3.6 m/s)
Visibility: 6 miles ( 9 km)
Ceiling: at least 12,000 feet AGL
Clouds: sky clear below 12,000 feet AGL
Weather: no significant weather observed at this time

METAR text: VVNB 212100Z 10006KT CAVOK 25/22 Q1003 NOSIG
Conditions at: VVNB (HANOI/NOIBAI INT, VN) observed 2100 UTC 21 April 2019
Temperature: 25.0°C (77°F)
Dewpoint: 22.0°C (72°F) [RH = 83%]
Pressure (altimeter): 29.62 inches Hg (1003.0 mb)
Winds: from the E (100 degrees) at 7 MPH (6 knots; 3.1 m/s)
Visibility: 6 or more miles (10+ km)
Ceiling: ceiling and visibility are OK
Clouds: unknown
Weather: no significant weather observed at this time

METAR text: VVNB 212030Z 09005KT CAVOK 25/21 Q1003 NOSIG
Conditions at: VVNB (HANOI/NOIBAI INT, VN) observed 2030 UTC 21 April 2019
Temperature: 25.0°C (77°F)
Dewpoint: 21.0°C (70°F) [RH = 79%]
Pressure (altimeter): 29.62 inches Hg (1003.0 mb)
Winds: from the E (90 degrees) at 6 MPH (5 knots; 2.6 m/s)
Visibility: 6 or more miles (10+ km)
Ceiling: ceiling and visibility are OK
Clouds: unknown
Weather: no significant weather observed at this time

METAR text: VVNB 212000Z 05004KT 010V080 CAVOK 25/21 Q1003 NOSIG
Conditions at: VVNB (HANOI/NOIBAI INT, VN) observed 2000 UTC 21 April 2019
Temperature: 25.0°C (77°F)
Dewpoint: 21.0°C (70°F) [RH = 79%]
Pressure (altimeter): 29.62 inches Hg (1003.0 mb)
Winds: from the NE (50 degrees) at 5 MPH (4 knots; 2.1 m/s)
Visibility: 6 or more miles (10+ km)
Ceiling: ceiling and visibility are OK
Clouds: unknown
Weather: no significant weather observed at this time

METAR text: VVNB 211930Z 07005KT 050V120 CAVOK 25/21 Q1003 NOSIG
Conditions at: VVNB (HANOI/NOIBAI INT, VN) observed 1930 UTC 21 April 2019
Temperature: 25.0°C (77°F)
Dewpoint: 21.0°C (70°F) [RH = 79%]
Pressure (altimeter): 29.62 inches Hg (1003.0 mb)
Winds: from the ENE (70 degrees) at 6 MPH (5 knots; 2.6 m/s)
Visibility: 6 or more miles (10+ km)
Ceiling: ceiling and visibility are OK
Clouds: unknown
Weather: no significant weather observed at this time

METAR text: VVNB 211900Z 07005KT CAVOK 26/20 Q1004 NOSIG
Conditions at: VVNB (HANOI/NOIBAI INT, VN) observed 1900 UTC 21 April 2019
Temperature: 26.0°C (79°F)
Dewpoint: 20.0°C (68°F) [RH = 70%]
Pressure (altimeter): 29.65 inches Hg (1004.0 mb)
Winds: from the ENE (70 degrees) at 6 MPH (5 knots; 2.6 m/s)
Visibility: 6 or more miles (10+ km)
Ceiling: ceiling and visibility are OK
Clouds: unknown
Weather: no significant weather observed at this time

METAR text: VVNB 211830Z 08005KT 9000 NSC 26/20 Q1004 NOSIG
Conditions at: VVNB (HANOI/NOIBAI INT, VN) observed 1830 UTC 21 April 2019
Temperature: 26.0°C (79°F)
Dewpoint: 20.0°C (68°F) [RH = 70%]
Pressure (altimeter): 29.65 inches Hg (1004.0 mb)
Winds: from the E (80 degrees) at 6 MPH (5 knots; 2.6 m/s)
Visibility: 6 miles ( 9 km)
Ceiling: at least 12,000 feet AGL
Clouds: sky clear below 12,000 feet AGL
Weather: no significant weather observed at this time

METAR text: VVNB 211800Z 11006KT 080V140 CAVOK 27/20 Q1005 NOSIG
Conditions at: VVNB (HANOI/NOIBAI INT, VN) observed 1800 UTC 21 April 2019
Temperature: 27.0°C (81°F)
Dewpoint: 20.0°C (68°F) [RH = 66%]
Pressure (altimeter): 29.68 inches Hg (1005.0 mb)
Winds: from the ESE (110 degrees) at 7 MPH (6 knots; 3.1 m/s)
Visibility: 6 or more miles (10+ km)
Ceiling: ceiling and visibility are OK
Clouds: unknown
Weather: no significant weather observed at this time

METAR text: VVNB 211730Z 10008KT 6000 NSC 27/27 Q1004 NOSIG
Conditions at: VVNB (HANOI/NOIBAI INT, VN) observed 1730 UTC 21 April 2019
Temperature: 27.0°C (81°F)
Dewpoint: 27.0°C (81°F) [RH = 100%]
Pressure (altimeter): 29.65 inches Hg (1004.0 mb)
Winds: from the E (100 degrees) at 9 MPH (8 knots; 4.1 m/s)
Visibility: 4 miles ( 6 km)
Ceiling: at least 12,000 feet AGL
Clouds: sky clear below 12,000 feet AGL
Weather: no significant weather observed at this time

METAR text: VVNB 211700Z 10007KT 7000 NSC 28/28 Q1005 NOSIG
Conditions at: VVNB (HANOI/NOIBAI INT, VN) observed 1700 UTC 21 April 2019
Temperature: 28.0°C (82°F)
Dewpoint: 28.0°C (82°F) [RH = 100%]
Pressure (altimeter): 29.68 inches Hg (1005.0 mb)
Winds: from the E (100 degrees) at 8 MPH (7 knots; 3.6 m/s)
Visibility: 4 miles ( 7 km)
Ceiling: at least 12,000 feet AGL
Clouds: sky clear below 12,000 feet AGL
Weather: no significant weather observed at this time

METAR text: VVNB 211630Z 34003KT 250V360 7000 NSC 28/28 Q1004 NOSIG
Conditions at: VVNB (HANOI/NOIBAI INT, VN) observed 1630 UTC 21 April 2019
Temperature: 28.0°C (82°F)
Dewpoint: 28.0°C (82°F) [RH = 100%]
Pressure (altimeter): 29.65 inches Hg (1004.0 mb)
Winds: from the NNW (340 degrees) at 3 MPH (3 knots; 1.5 m/s)
Visibility: 4 miles ( 7 km)
Ceiling: at least 12,000 feet AGL
Clouds: sky clear below 12,000 feet AGL
Weather: no significant weather observed at this time

METAR text: VVNB 211600Z VRB04KT 7000 NSC 28/28 Q1004 NOSIG
Conditions at: VVNB (HANOI/NOIBAI INT, VN) observed 1600 UTC 21 April 2019
Temperature: 28.0°C (82°F)
Dewpoint: 28.0°C (82°F) [RH = 100%]
Pressure (altimeter): 29.65 inches Hg (1004.0 mb)
Winds: variable direction winds at 5 MPH (4 knots; 2.1 m/s)
Visibility: 4 miles ( 7 km)
Ceiling: at least 12,000 feet AGL
Clouds: sky clear below 12,000 feet AGL
Weather: no significant weather observed at this time

METAR text: VVNB 211530Z 08004KT 020V100 7000 NSC 28/28 Q1004 NOSIG
Conditions at: VVNB (HANOI/NOIBAI INT, VN) observed 1530 UTC 21 April 2019
Temperature: 28.0°C (82°F)
Dewpoint: 28.0°C (82°F) [RH = 100%]
Pressure (altimeter): 29.65 inches Hg (1004.0 mb)
Winds: from the E (80 degrees) at 5 MPH (4 knots; 2.1 m/s)
Visibility: 4 miles ( 7 km)
Ceiling: at least 12,000 feet AGL
Clouds: sky clear below 12,000 feet AGL
Weather: no significant weather observed at this time

METAR text: VVNB 211500Z 07006KT 040V110 7000 NSC 28/28 Q1005 NOSIG
Conditions at: VVNB (HANOI/NOIBAI INT, VN) observed 1500 UTC 21 April 2019
Temperature: 28.0°C (82°F)
Dewpoint: 28.0°C (82°F) [RH = 100%]
Pressure (altimeter): 29.68 inches Hg (1005.0 mb)
Winds: from the ENE (70 degrees) at 7 MPH (6 knots; 3.1 m/s)
Visibility: 4 miles ( 7 km)
Ceiling: at least 12,000 feet AGL
Clouds: sky clear below 12,000 feet AGL
Weather: no significant weather observed at this time

METAR text: VVNB 211430Z 08004KT 040V100 7000 NSC 28/27 Q1005 NOSIG
Conditions at: VVNB (HANOI/NOIBAI INT, VN) observed 1430 UTC 21 April 2019
Temperature: 28.0°C (82°F)
Dewpoint: 27.0°C (81°F) [RH = 94%]
Pressure (altimeter): 29.68 inches Hg (1005.0 mb)
Winds: from the E (80 degrees) at 5 MPH (4 knots; 2.1 m/s)
Visibility: 4 miles ( 7 km)
Ceiling: at least 12,000 feet AGL
Clouds: sky clear below 12,000 feet AGL
Weather: no significant weather observed at this time

METAR text: VVNB 211400Z 06005KT 030V110 8000 FEW015 BKN030 28/28 Q1004 NOSIG
Conditions at: VVNB (HANOI/NOIBAI INT, VN) observed 1400 UTC 21 April 2019
Temperature: 28.0°C (82°F)
Dewpoint: 28.0°C (82°F) [RH = 100%]
Pressure (altimeter): 29.65 inches Hg (1004.0 mb)
Winds: from the ENE (60 degrees) at 6 MPH (5 knots; 2.6 m/s)
Visibility: 5 miles ( 8 km)
Ceiling: 3000 feet AGL
Clouds: few clouds at 1500 feet AGL
broken clouds at 3000 feet AGL
Weather: no significant weather observed at this time

METAR text: VVNB 211330Z 09007KT 9000 FEW015 BKN030 29/26 Q1004 NOSIG
Conditions at: VVNB (HANOI/NOIBAI INT, VN) observed 1330 UTC 21 April 2019
Temperature: 29.0°C (84°F)
Dewpoint: 26.0°C (79°F) [RH = 84%]
Pressure (altimeter): 29.65 inches Hg (1004.0 mb)
Winds: from the E (90 degrees) at 8 MPH (7 knots; 3.6 m/s)
Visibility: 6 miles ( 9 km)
Ceiling: 3000 feet AGL
Clouds: few clouds at 1500 feet AGL
broken clouds at 3000 feet AGL
Weather: no significant weather observed at this time

METAR text: VVNB 211300Z 13009KT 9000 FEW016 BKN030 29/26 Q1004 NOSIG
Conditions at: VVNB (HANOI/NOIBAI INT, VN) observed 1300 UTC 21 April 2019
Temperature: 29.0°C (84°F)
Dewpoint: 26.0°C (79°F) [RH = 84%]
Pressure (altimeter): 29.65 inches Hg (1004.0 mb)
Winds: from the SE (130 degrees) at 10 MPH (9 knots; 4.6 m/s)
Visibility: 6 miles ( 9 km)
Ceiling: 3000 feet AGL
Clouds: few clouds at 1600 feet AGL
broken clouds at 3000 feet AGL
Weather: no significant weather observed at this time

METAR text: VVNB 211230Z 13010KT 9000 FEW016 BKN030 30/25 Q1004 NOSIG
Conditions at: VVNB (HANOI/NOIBAI INT, VN) observed 1230 UTC 21 April 2019
Temperature: 30.0°C (86°F)
Dewpoint: 25.0°C (77°F) [RH = 75%]
Pressure (altimeter): 29.65 inches Hg (1004.0 mb)
Winds: from the SE (130 degrees) at 12 MPH (10 knots; 5.1 m/s)
Visibility: 6 miles ( 9 km)
Ceiling: 3000 feet AGL
Clouds: few clouds at 1600 feet AGL
broken clouds at 3000 feet AGL
Weather: no significant weather observed at this time

METAR text: VVNB 211200Z 14010KT 9000 -TSRA FEW030CB BKN033 30/25 Q1003 BECMG FM1230 NSW
Conditions at: VVNB (HANOI/NOIBAI INT, VN) observed 1200 UTC 21 April 2019
Temperature: 30.0°C (86°F)
Dewpoint: 25.0°C (77°F) [RH = 75%]
Pressure (altimeter): 29.62 inches Hg (1003.0 mb)
Winds: from the SE (140 degrees) at 12 MPH (10 knots; 5.1 m/s)
Visibility: 6 miles ( 9 km)
Ceiling: 3300 feet AGL
Clouds: few clouds at 3000 feet AGL
broken clouds at 3300 feet AGL
Weather: -TSRA  (light rain associated with thunderstorm(s))

METAR text: VVNB 211130Z 12012KT 9000 VCTS FEW030CB BKN033 30/26 Q1002 TEMPO 4000 TSRA
Conditions at: VVNB (HANOI/NOIBAI INT, VN) observed 1130 UTC 21 April 2019
Temperature: 30.0°C (86°F)
Dewpoint: 26.0°C (79°F) [RH = 79%]
Pressure (altimeter): 29.59 inches Hg (1002.0 mb)
Winds: from the ESE (120 degrees) at 14 MPH (12 knots; 6.2 m/s)
Visibility: 6 miles ( 9 km)
Ceiling: 3300 feet AGL
Clouds: few clouds at 3000 feet AGL
broken clouds at 3300 feet AGL
Weather: VCTS  (thunderstorm in vicinity)

METAR text: VVNB 211100Z 14007KT 9000 SCT034 31/26 Q1002 NOSIG
Conditions at: VVNB (HANOI/NOIBAI INT, VN) observed 1100 UTC 21 April 2019
Temperature: 31.0°C (88°F)
Dewpoint: 26.0°C (79°F) [RH = 75%]
Pressure (altimeter): 29.59 inches Hg (1002.0 mb)
Winds: from the SE (140 degrees) at 8 MPH (7 knots; 3.6 m/s)
Visibility: 6 miles ( 9 km)
Ceiling: at least 12,000 feet AGL
Clouds: scattered clouds at 3400 feet AGL
Weather: no significant weather observed at this time

METAR text: VVNB 211030Z 14008KT 110V170 9000 SCT035 31/25 Q1002 NOSIG
Conditions at: VVNB (HANOI/NOIBAI INT, VN) observed 1030 UTC 21 April 2019
Temperature: 31.0°C (88°F)
Dewpoint: 25.0°C (77°F) [RH = 71%]
Pressure (altimeter): 29.59 inches Hg (1002.0 mb)
Winds: from the SE (140 degrees) at 9 MPH (8 knots; 4.1 m/s)
Visibility: 6 miles ( 9 km)
Ceiling: at least 12,000 feet AGL
Clouds: scattered clouds at 3500 feet AGL
Weather: no significant weather observed at this time

METAR text: VVNB 211000Z 12009KT 9999 FEW030 31/25 Q1001 NOSIG
Conditions at: VVNB (HANOI/NOIBAI INT, VN) observed 1000 UTC 21 April 2019
Temperature: 31.0°C (88°F)
Dewpoint: 25.0°C (77°F) [RH = 71%]
Pressure (altimeter): 29.56 inches Hg (1001.0 mb)
Winds: from the ESE (120 degrees) at 10 MPH (9 knots; 4.6 m/s)
Visibility: 6 or more miles (10+ km)
Ceiling: at least 12,000 feet AGL
Clouds: few clouds at 3000 feet AGL
Weather: no significant weather observed at this time

METAR text: VVNB 210930Z 11010KT 9999 FEW030 31/25 Q1001 NOSIG
Conditions at: VVNB (HANOI/NOIBAI INT, VN) observed 0930 UTC 21 April 2019
Temperature: 31.0°C (88°F)
Dewpoint: 25.0°C (77°F) [RH = 71%]
Pressure (altimeter): 29.56 inches Hg (1001.0 mb)
Winds: from the ESE (110 degrees) at 12 MPH (10 knots; 5.1 m/s)
Visibility: 6 or more miles (10+ km)
Ceiling: at least 12,000 feet AGL
Clouds: few clouds at 3000 feet AGL
Weather: no significant weather observed at this time

METAR text: VVNB 210900Z 10010KT 9999 FEW030 32/25 Q1001 NOSIG
Conditions at: VVNB (HANOI/NOIBAI INT, VN) observed 0900 UTC 21 April 2019
Temperature: 32.0°C (90°F)
Dewpoint: 25.0°C (77°F) [RH = 67%]
Pressure (altimeter): 29.56 inches Hg (1001.0 mb)
Winds: from the E (100 degrees) at 12 MPH (10 knots; 5.1 m/s)
Visibility: 6 or more miles (10+ km)
Ceiling: at least 12,000 feet AGL
Clouds: few clouds at 3000 feet AGL
Weather: no significant weather observed at this time

METAR text: VVNB 210830Z 11009KT 9999 SCT030 32/25 Q1001 NOSIG
Conditions at: VVNB (HANOI/NOIBAI INT, VN) observed 0830 UTC 21 April 2019
Temperature: 32.0°C (90°F)
Dewpoint: 25.0°C (77°F) [RH = 67%]
Pressure (altimeter): 29.56 inches Hg (1001.0 mb)
Winds: from the ESE (110 degrees) at 10 MPH (9 knots; 4.6 m/s)
Visibility: 6 or more miles (10+ km)
Ceiling: at least 12,000 feet AGL
Clouds: scattered clouds at 3000 feet AGL
Weather: no significant weather observed at this time

METAR text: VVNB 210800Z 11008KT 9999 SCT030 32/25 Q1002 NOSIG
Conditions at: VVNB (HANOI/NOIBAI INT, VN) observed 0800 UTC 21 April 2019
Temperature: 32.0°C (90°F)
Dewpoint: 25.0°C (77°F) [RH = 67%]
Pressure (altimeter): 29.59 inches Hg (1002.0 mb)
Winds: from the ESE (110 degrees) at 9 MPH (8 knots; 4.1 m/s)
Visibility: 6 or more miles (10+ km)
Ceiling: at least 12,000 feet AGL
Clouds: scattered clouds at 3000 feet AGL
Weather: no significant weather observed at this time

METAR text: VVNB 210730Z 11008KT 070V130 9999 FEW020 BKN032 32/25 Q1002 NOSIG
Conditions at: VVNB (HANOI/NOIBAI INT, VN) observed 0730 UTC 21 April 2019
Temperature: 32.0°C (90°F)
Dewpoint: 25.0°C (77°F) [RH = 67%]
Pressure (altimeter): 29.59 inches Hg (1002.0 mb)
Winds: from the ESE (110 degrees) at 9 MPH (8 knots; 4.1 m/s)
Visibility: 6 or more miles (10+ km)
Ceiling: 3200 feet AGL
Clouds: few clouds at 2000 feet AGL
broken clouds at 3200 feet AGL
Weather: no significant weather observed at this time

METAR text: VVNB 210700Z 10007KT 070V130 9999 SCT025 BKN032 33/25 Q1003 NOSIG
Conditions at: VVNB (HANOI/NOIBAI INT, VN) observed 0700 UTC 21 April 2019
Temperature: 33.0°C (91°F)
Dewpoint: 25.0°C (77°F) [RH = 63%]
Pressure (altimeter): 29.62 inches Hg (1003.0 mb)
Winds: from the E (100 degrees) at 8 MPH (7 knots; 3.6 m/s)
Visibility: 6 or more miles (10+ km)
Ceiling: 3200 feet AGL
Clouds: scattered clouds at 2500 feet AGL
broken clouds at 3200 feet AGL
Weather: no significant weather observed at this time

METAR text: VVNB 210630Z 11007KT 070V140 9999 SCT025 BKN032 32/25 Q1003 NOSIG
Conditions at: VVNB (HANOI/NOIBAI INT, VN) observed 0630 UTC 21 April 2019
Temperature: 32.0°C (90°F)
Dewpoint: 25.0°C (77°F) [RH = 67%]
Pressure (altimeter): 29.62 inches Hg (1003.0 mb)
Winds: from the ESE (110 degrees) at 8 MPH (7 knots; 3.6 m/s)
Visibility: 6 or more miles (10+ km)
Ceiling: 3200 feet AGL
Clouds: scattered clouds at 2500 feet AGL
broken clouds at 3200 feet AGL
Weather: no significant weather observed at this time

METAR text: VVNB 210600Z 09007KT 9999 SCT020 BKN027 32/25 Q1003 NOSIG
Conditions at: VVNB (HANOI/NOIBAI INT, VN) observed 0600 UTC 21 April 2019
Temperature: 32.0°C (90°F)
Dewpoint: 25.0°C (77°F) [RH = 67%]
Pressure (altimeter): 29.62 inches Hg (1003.0 mb)
Winds: from the E (90 degrees) at 8 MPH (7 knots; 3.6 m/s)
Visibility: 6 or more miles (10+ km)
Ceiling: 2700 feet AGL
Clouds: scattered clouds at 2000 feet AGL
broken clouds at 2700 feet AGL
Weather: no significant weather observed at this time

METAR text: VVNB 210530Z 10008KT 050V140 9000 SCT020 BKN027 32/26 Q1004 NOSIG
Conditions at: VVNB (HANOI/NOIBAI INT, VN) observed 0530 UTC 21 April 2019
Temperature: 32.0°C (90°F)
Dewpoint: 26.0°C (79°F) [RH = 71%]
Pressure (altimeter): 29.65 inches Hg (1004.0 mb)
Winds: from the E (100 degrees) at 9 MPH (8 knots; 4.1 m/s)
Visibility: 6 miles ( 9 km)
Ceiling: 2700 feet AGL
Clouds: scattered clouds at 2000 feet AGL
broken clouds at 2700 feet AGL
Weather: no significant weather observed at this time

METAR text: VVNB 210500Z 10007KT 060V130 9999 SCT020 BKN025 31/25 Q1004 NOSIG
Conditions at: VVNB (HANOI/NOIBAI INT, VN) observed 0500 UTC 21 April 2019
Temperature: 31.0°C (88°F)
Dewpoint: 25.0°C (77°F) [RH = 71%]
Pressure (altimeter): 29.65 inches Hg (1004.0 mb)
Winds: from the E (100 degrees) at 8 MPH (7 knots; 3.6 m/s)
Visibility: 6 or more miles (10+ km)
Ceiling: 2500 feet AGL
Clouds: scattered clouds at 2000 feet AGL
broken clouds at 2500 feet AGL
Weather: no significant weather observed at this time

METAR text: VVNB 210430Z 11007KT 080V150 9999 SCT018 BKN027 31/25 Q1005 NOSIG
Conditions at: VVNB (HANOI/NOIBAI INT, VN) observed 0430 UTC 21 April 2019
Temperature: 31.0°C (88°F)
Dewpoint: 25.0°C (77°F) [RH = 71%]
Pressure (altimeter): 29.68 inches Hg (1005.0 mb)
Winds: from the ESE (110 degrees) at 8 MPH (7 knots; 3.6 m/s)
Visibility: 6 or more miles (10+ km)
Ceiling: 2700 feet AGL
Clouds: scattered clouds at 1800 feet AGL
broken clouds at 2700 feet AGL
Weather: no significant weather observed at this time

METAR text: VVNB 210400Z 14007KT 9000 SCT018 BKN027 31/25 Q1005 NOSIG
Conditions at: VVNB (HANOI/NOIBAI INT, VN) observed 0400 UTC 21 April 2019
Temperature: 31.0°C (88°F)
Dewpoint: 25.0°C (77°F) [RH = 71%]
Pressure (altimeter): 29.68 inches Hg (1005.0 mb)
Winds: from the SE (140 degrees) at 8 MPH (7 knots; 3.6 m/s)
Visibility: 6 miles ( 9 km)
Ceiling: 2700 feet AGL
Clouds: scattered clouds at 1800 feet AGL
broken clouds at 2700 feet AGL
Weather: no significant weather observed at this time

METAR text: VVNB 210330Z 11006KT 080V150 9000 SCT015 BKN025 31/26 Q1005 NOSIG
Conditions at: VVNB (HANOI/NOIBAI INT, VN) observed 0330 UTC 21 April 2019
Temperature: 31.0°C (88°F)
Dewpoint: 26.0°C (79°F) [RH = 75%]
Pressure (altimeter): 29.68 inches Hg (1005.0 mb)
Winds: from the ESE (110 degrees) at 7 MPH (6 knots; 3.1 m/s)
Visibility: 6 miles ( 9 km)
Ceiling: 2500 feet AGL
Clouds: scattered clouds at 1500 feet AGL
broken clouds at 2500 feet AGL
Weather: no significant weather observed at this time

METAR text: VVNB 210300Z 10005KT 070V130 9000 SCT015 BKN025 30/27 Q1005 NOSIG
Conditions at: VVNB (HANOI/NOIBAI INT, VN) observed 0300 UTC 21 April 2019
Temperature: 30.0°C (86°F)
Dewpoint: 27.0°C (81°F) [RH = 84%]
Pressure (altimeter): 29.68 inches Hg (1005.0 mb)
Winds: from the E (100 degrees) at 6 MPH (5 knots; 2.6 m/s)
Visibility: 6 miles ( 9 km)
Ceiling: 2500 feet AGL
Clouds: scattered clouds at 1500 feet AGL
broken clouds at 2500 feet AGL
Weather: no significant weather observed at this time

METAR text: VVNB 210230Z 13008KT 090V150 8000 SCT014 BKN027 30/28 Q1005 NOSIG
Conditions at: VVNB (HANOI/NOIBAI INT, VN) observed 0230 UTC 21 April 2019
Temperature: 30.0°C (86°F)
Dewpoint: 28.0°C (82°F) [RH = 89%]
Pressure (altimeter): 29.68 inches Hg (1005.0 mb)
Winds: from the SE (130 degrees) at 9 MPH (8 knots; 4.1 m/s)
Visibility: 5 miles ( 8 km)
Ceiling: 2700 feet AGL
Clouds: scattered clouds at 1400 feet AGL
broken clouds at 2700 feet AGL
Weather: no significant weather observed at this time

METAR text: VVNB 210200Z 10008KT 8000 FEW013 BKN027 29/27 Q1005 NOSIG
Conditions at: VVNB (HANOI/NOIBAI INT, VN) observed 0200 UTC 21 April 2019
Temperature: 29.0°C (84°F)
Dewpoint: 27.0°C (81°F) [RH = 89%]
Pressure (altimeter): 29.68 inches Hg (1005.0 mb)
Winds: from the E (100 degrees) at 9 MPH (8 knots; 4.1 m/s)
Visibility: 5 miles ( 8 km)
Ceiling: 2700 feet AGL
Clouds: few clouds at 1300 feet AGL
broken clouds at 2700 feet AGL
Weather: no significant weather observed at this time

Forecast for: VVNB (HANOI/NOIBAI INT, VN)
Text: TAF VVNB 221100Z 2212/2312 11010KT 9999 FEW030
Forecast period: 1200 UTC 22 April 2019 to 1200 UTC 23 April 2019
Forecast type: FROM: standard forecast or significant change
Winds: from the ESE (110 degrees) at 12 MPH (10 knots; 5.1 m/s)
Visibility: 6 or more miles 10+ km)
Ceiling: at least 12,000 feet AGL
Clouds: few clouds at 3000 feet AGL
Weather: no significant weather forecast for this period
Text: PROB40
Forecast period: 1700 to 2100 UTC 22 April 2019
Forecast type: TEMPORARY: The following changes expected for less than half the time period
Visibility: 2.80 miles (4.51 km)
Ceiling: at least 12,000 feet AGL
Clouds: scattered clouds at 2000 feet AGL
few clouds at 2300 feet AGL
Weather: RA  (moderate rain)
Text: TEMPO 2217/2221 4500 RA SCT020 FEW023TCU
Forecast period: 0400 to 0700 UTC 23 April 2019
Forecast type: TEMPORARY: The following changes expected for less than half the time period
Visibility: 2.49 miles (4.01 km)
Ceiling: at least 12,000 feet AGL
Clouds: scattered clouds at 2000 feet AGL
few clouds at 3000 feet AGL
Weather: TSRA  (rain associated with thunderstorm(s))